Terminal Aerodrome Forecast
Issued by NWS Milwaukee/Sullivan, WI

Home | Current Version | Previous Version | Text Only | Print | Product List | Glossary On
Versions: 1 2 3 4 5 6 7 8 9 10 11 12 13 14 15 16 17 18 19 20 21 22 23
000
FTUS43 KMKX 090525
TAFMSN
TAF
KMSN 090525Z 0906/1006 30007KT P6SM BKN040
     FM091200 30006KT P6SM SCT050
     FM091400 30007KT P6SM SCT250
     FM092000 29008KT P6SM SCT030 BKN200
     FM092100 29008KT P6SM BKN030=

USA.gov is the U.S. government's official web portal to all federal, state and local government web resources and services.